createdAt,value
2023-02-15T00:00:54.587Z,52.83
2023-02-15T00:01:56.532Z,57.00
2023-02-15T00:02:58.358Z,58.27
2023-02-15T00:04:01.413Z,57.40
2023-02-15T00:05:03.546Z,54.90
2023-02-15T00:06:06.151Z,54.47
2023-02-15T00:07:13.164Z,56.03
2023-02-15T00:08:18.371Z,57.77
2023-02-15T00:09:19.869Z,59.80
2023-02-15T00:10:21.618Z,61.23
2023-02-15T00:11:41.278Z,64.27
2023-02-15T00:12:42.948Z,61.87
2023-02-15T00:13:44.834Z,74.67
2023-02-15T00:14:47.037Z,74.73
2023-02-15T00:15:49.095Z,68.13
2023-02-15T00:16:52.179Z,70.00
2023-02-15T00:17:54.234Z,72.27
2023-02-15T00:19:05.001Z,63.60
2023-02-15T00:20:09.509Z,68.23
2023-02-15T00:21:11.523Z,69.07
2023-02-15T00:22:13.541Z,72.10
2023-02-15T00:23:15.312Z,69.73
2023-02-15T00:24:19.556Z,63.90
2023-02-15T00:25:25.816Z,62.43
2023-02-15T00:26:28.017Z,66.90
2023-02-15T00:27:34.215Z,67.40
2023-02-15T00:28:38.339Z,65.10
2023-02-15T00:29:40.228Z,64.47
2023-02-15T00:30:44.662Z,70.90
2023-02-15T00:31:46.882Z,64.30
2023-02-15T00:32:49.481Z,70.20
2023-02-15T00:33:53.851Z,67.67
2023-02-15T00:34:55.990Z,65.37
2023-02-15T00:36:05.346Z,65.50
2023-02-15T00:37:07.062Z,68.80
2023-02-15T00:38:09.356Z,64.53
2023-02-15T00:39:14.329Z,65.87
2023-02-15T00:40:25.605Z,67.03
2023-02-15T00:41:27.168Z,62.70
2023-02-15T00:42:33.444Z,60.13
2023-02-15T00:43:36.380Z,62.37
2023-02-15T00:44:40.747Z,51.07
2023-02-15T00:45:42.441Z,51.40
2023-02-15T00:46:44.388Z,47.23
2023-02-15T00:47:46.330Z,51.33
2023-02-15T00:48:48.251Z,53.23
2023-02-15T00:49:49.841Z,55.00
2023-02-15T00:50:55.632Z,73.60
2023-02-15T00:51:57.118Z,62.87
2023-02-15T00:53:01.281Z,59.37
2023-02-15T00:54:03.385Z,59.50
2023-02-15T00:55:07.407Z,56.17
2023-02-15T00:56:12.068Z,54.23
2023-02-15T00:57:14.351Z,51.90
2023-02-15T00:58:19.447Z,54.80
2023-02-15T00:59:24.184Z,53.73
2023-02-15T01:00:30.921Z,45.03
2023-02-15T01:01:35.910Z,43.70
2023-02-15T01:02:41.869Z,47.37
2023-02-15T01:03:44.303Z,47.83
2023-02-15T01:04:48.302Z,52.57
2023-02-15T01:05:51.883Z,42.30
2023-02-15T01:06:55.033Z,41.80
2023-02-15T01:07:57.666Z,47.63
2023-02-15T01:08:59.296Z,46.03
2023-02-15T01:10:03.932Z,46.20
2023-02-15T01:11:13.259Z,42.30
2023-02-15T01:12:15.486Z,42.50
2023-02-15T01:13:17.669Z,51.23
2023-02-15T01:14:20.726Z,46.03
2023-02-15T01:15:23.190Z,47.43
2023-02-15T01:16:29.526Z,47.87
2023-02-15T01:17:32.067Z,46.03
2023-02-15T01:18:34.390Z,48.77
2023-02-15T01:19:39.094Z,47.33
2023-02-15T01:20:44.660Z,46.20
2023-02-15T01:21:46.707Z,48.30
2023-02-15T01:22:51.019Z,50.57
2023-02-15T01:23:52.925Z,47.80
2023-02-15T01:24:55.026Z,49.90
2023-02-15T01:26:00.155Z,50.13
2023-02-15T01:27:02.229Z,44.90
2023-02-15T01:28:04.629Z,42.57
2023-02-15T01:29:15.597Z,45.97
2023-02-15T01:30:17.484Z,46.13
2023-02-15T01:31:22.037Z,45.20
2023-02-15T01:32:24.009Z,47.90
2023-02-15T01:33:25.797Z,49.33
2023-02-15T01:34:27.798Z,47.57
2023-02-15T01:35:29.601Z,45.23
2023-02-15T01:36:31.709Z,49.00
2023-02-15T01:37:36.891Z,49.33
2023-02-15T01:38:41.255Z,49.20
2023-02-15T01:39:42.957Z,48.93
2023-02-15T01:40:45.179Z,48.40
2023-02-15T01:41:47.501Z,47.77
2023-02-15T01:42:55.188Z,50.40
2023-02-15T01:44:04.426Z,49.47
2023-02-15T01:45:23.328Z,54.73
2023-02-15T01:46:36.776Z,53.40
2023-02-15T01:47:46.745Z,52.10
2023-02-15T01:48:49.791Z,52.10
2023-02-15T01:49:55.626Z,50.00
2023-02-15T01:51:02.038Z,49.60
2023-02-15T01:52:04.507Z,46.50
2023-02-15T01:53:17.679Z,54.47
2023-02-15T01:54:28.848Z,46.13
2023-02-15T01:55:37.866Z,48.27
2023-02-15T01:56:42.888Z,47.07
2023-02-15T01:57:46.272Z,49.57
2023-02-15T01:58:53.343Z,49.67
2023-02-15T01:59:57.573Z,44.93
2023-02-15T02:01:01.585Z,49.47
2023-02-15T02:02:04.990Z,48.20
2023-02-15T02:03:07.082Z,47.00
2023-02-15T02:04:21.653Z,46.47
2023-02-15T02:05:25.327Z,43.40
2023-02-15T02:06:27.730Z,42.80
2023-02-15T02:07:30.622Z,49.77
2023-02-15T02:08:35.077Z,52.70
2023-02-15T02:09:37.358Z,51.40
2023-02-15T02:10:38.710Z,52.23
2023-02-15T02:11:41.371Z,50.47
2023-02-15T02:12:45.064Z,48.77
2023-02-15T02:13:46.713Z,49.97
2023-02-15T02:14:48.925Z,45.17
2023-02-15T02:16:02.055Z,59.50
2023-02-15T02:17:11.179Z,46.90
2023-02-15T02:18:28.285Z,50.87
2023-02-15T02:19:50.329Z,45.47
2023-02-15T02:21:10.270Z,47.43
2023-02-15T02:22:30.498Z,47.97
2023-02-15T02:23:34.879Z,47.63
2023-02-15T02:24:43.307Z,47.90
2023-02-15T02:26:03.238Z,44.10
2023-02-15T02:27:15.558Z,40.37
2023-02-15T02:28:36.660Z,47.40
2023-02-15T02:29:57.823Z,45.37
2023-02-15T02:31:14.239Z,44.30
2023-02-15T02:32:21.510Z,45.43
2023-02-15T02:33:34.175Z,47.40
2023-02-15T02:34:53.591Z,49.87
2023-02-15T02:36:07.118Z,45.57
2023-02-15T02:37:12.439Z,42.00
2023-02-15T02:38:16.786Z,45.33
2023-02-15T02:39:38.363Z,48.17
2023-02-15T02:40:49.556Z,43.87
2023-02-15T02:41:53.860Z,50.83
2023-02-15T02:43:13.911Z,47.40
2023-02-15T02:44:30.661Z,43.80
2023-02-15T02:45:41.866Z,45.07
2023-02-15T02:46:50.044Z,49.20
2023-02-15T02:47:57.468Z,49.17
2023-02-15T02:48:58.779Z,50.30
2023-02-15T02:50:01.351Z,46.27
2023-02-15T02:51:02.736Z,45.27
2023-02-15T02:52:07.481Z,52.00
2023-02-15T02:53:10.073Z,43.57
2023-02-15T02:54:11.429Z,46.57
2023-02-15T02:55:18.310Z,48.40
2023-02-15T02:56:40.429Z,56.43
2023-02-15T02:58:08.848Z,51.00
2023-02-15T02:59:13.560Z,49.83
2023-02-15T03:00:16.617Z,43.33
2023-02-15T03:01:21.437Z,44.33
2023-02-15T03:02:26.170Z,47.37
2023-02-15T03:03:33.280Z,48.87
2023-02-15T03:04:39.054Z,46.63
2023-02-15T03:05:41.720Z,51.90
2023-02-15T03:06:47.952Z,46.33
2023-02-15T03:07:51.977Z,47.77
2023-02-15T03:08:56.720Z,46.83
2023-02-15T03:09:59.509Z,54.00
2023-02-15T03:11:02.418Z,49.50
2023-02-15T03:12:05.066Z,52.37
2023-02-15T03:13:09.586Z,51.60
2023-02-15T03:14:11.463Z,44.60
2023-02-15T03:15:15.475Z,53.57
2023-02-15T03:16:27.978Z,44.13
2023-02-15T03:17:32.358Z,48.43
2023-02-15T03:18:37.392Z,44.07
2023-02-15T03:19:39.803Z,48.17
2023-02-15T03:20:41.143Z,47.20
2023-02-15T03:21:50.345Z,43.83
2023-02-15T03:22:54.123Z,48.70
2023-02-15T03:23:58.450Z,50.00
2023-02-15T03:25:02.639Z,49.23
2023-02-15T03:26:05.635Z,46.13
2023-02-15T03:27:12.119Z,47.20
2023-02-15T03:28:18.794Z,45.47
2023-02-15T03:29:21.545Z,45.97
2023-02-15T03:30:26.080Z,50.73
2023-02-15T03:31:31.560Z,44.83
2023-02-15T03:32:33.993Z,47.10
2023-02-15T03:33:36.924Z,42.53
2023-02-15T03:34:38.229Z,42.27
2023-02-15T03:35:42.593Z,42.73
2023-02-15T03:36:51.641Z,45.10
2023-02-15T03:37:55.998Z,44.03
2023-02-15T03:39:05.830Z,46.13
2023-02-15T03:40:31.618Z,47.50
2023-02-15T03:41:35.136Z,46.07
2023-02-15T03:42:39.489Z,45.33
2023-02-15T03:43:53.129Z,38.73
2023-02-15T03:44:58.331Z,48.53
2023-02-15T03:46:05.869Z,42.80
2023-02-15T03:47:09.970Z,40.93
2023-02-15T03:48:11.595Z,44.70
2023-02-15T03:49:39.372Z,42.40
2023-02-15T03:51:00.050Z,42.83
2023-02-15T03:52:04.391Z,46.77
2023-02-15T03:53:07.184Z,47.00
2023-02-15T03:54:13.464Z,47.37
2023-02-15T03:55:14.811Z,47.17
2023-02-15T03:56:16.133Z,45.93
2023-02-15T03:57:35.879Z,45.30
2023-02-15T03:58:55.666Z,45.53
2023-02-15T04:00:16.262Z,48.33
2023-02-15T04:01:45.316Z,52.10
2023-02-15T04:02:56.562Z,45.53
2023-02-15T04:04:08.350Z,43.60
2023-02-15T04:05:09.650Z,47.07
2023-02-15T04:06:10.972Z,47.77
2023-02-15T04:07:12.931Z,47.50
2023-02-15T04:08:14.347Z,48.40
2023-02-15T04:09:34.074Z,49.93
2023-02-15T04:10:53.534Z,48.40
2023-02-15T04:11:54.919Z,47.10
2023-02-15T04:12:56.884Z,50.37
2023-02-15T04:13:58.786Z,46.70
2023-02-15T04:15:18.883Z,49.47
2023-02-15T04:16:20.257Z,49.30
2023-02-15T04:17:21.664Z,48.97
2023-02-15T04:18:41.602Z,49.93
2023-02-15T04:20:01.324Z,50.57
2023-02-15T04:21:21.092Z,50.10
2023-02-15T04:22:40.811Z,45.63
2023-02-15T04:24:00.603Z,42.90
2023-02-15T04:25:13.964Z,47.37
2023-02-15T04:26:15.639Z,49.23
2023-02-15T04:27:17.858Z,48.50
2023-02-15T04:28:19.243Z,43.27
2023-02-15T04:29:21.379Z,54.50
2023-02-15T04:30:23.876Z,52.20
2023-02-15T04:31:25.440Z,50.03
2023-02-15T04:32:26.919Z,47.63
2023-02-15T04:33:28.236Z,46.30
2023-02-15T04:34:29.552Z,47.30
2023-02-15T04:35:32.713Z,54.63
2023-02-15T04:36:34.164Z,47.13
2023-02-15T04:37:35.789Z,49.13
2023-02-15T04:38:37.087Z,49.67
2023-02-15T04:39:38.484Z,41.40
2023-02-15T04:40:39.831Z,53.43
2023-02-15T04:41:41.514Z,49.50
2023-02-15T04:42:42.825Z,50.37
2023-02-15T04:43:44.144Z,53.60
2023-02-15T04:44:45.576Z,52.10
2023-02-15T04:45:51.113Z,49.63
2023-02-15T04:46:52.496Z,49.67
2023-02-15T04:47:53.843Z,52.20
2023-02-15T04:48:55.506Z,59.50
2023-02-15T04:49:58.196Z,51.07
2023-02-15T04:50:59.724Z,59.03
2023-02-15T04:52:01.103Z,52.00
2023-02-15T04:53:03.921Z,51.37
2023-02-15T04:54:05.268Z,50.13
2023-02-15T04:55:06.853Z,53.33
2023-02-15T04:56:08.182Z,53.73
2023-02-15T04:57:09.536Z,47.23
2023-02-15T04:58:10.840Z,51.63
2023-02-15T04:59:12.663Z,45.90
2023-02-15T05:00:14.170Z,46.33
2023-02-15T05:01:15.541Z,50.53
2023-02-15T05:02:16.958Z,48.10
2023-02-15T05:03:19.691Z,47.23
2023-02-15T05:04:21.197Z,47.30
2023-02-15T05:05:22.580Z,46.93
2023-02-15T05:06:24.116Z,49.67
2023-02-15T05:07:25.467Z,47.47
2023-02-15T05:08:26.794Z,50.60
2023-02-15T05:09:28.097Z,49.03
2023-02-15T05:10:29.368Z,51.80
2023-02-15T05:11:30.669Z,52.27
2023-02-15T05:12:31.972Z,52.70
2023-02-15T05:13:33.399Z,51.47
2023-02-15T05:14:34.736Z,51.57
2023-02-15T05:15:36.152Z,48.17
2023-02-15T05:16:37.573Z,47.00
2023-02-15T05:17:39.015Z,48.60
2023-02-15T05:18:40.446Z,47.47
2023-02-15T05:19:41.824Z,47.57
2023-02-15T05:20:43.158Z,47.53
2023-02-15T05:21:44.475Z,50.43
2023-02-15T05:22:45.789Z,48.07
2023-02-15T05:23:47.118Z,47.80
2023-02-15T05:25:07.054Z,50.67
2023-02-15T05:26:28.662Z,49.80
2023-02-15T05:27:48.538Z,48.13
2023-02-15T05:28:49.853Z,50.37
2023-02-15T05:29:51.260Z,52.77
2023-02-15T05:31:15.772Z,49.63
2023-02-15T05:32:17.372Z,54.53
2023-02-15T05:33:18.776Z,50.60
2023-02-15T05:34:20.061Z,47.67
2023-02-15T05:35:21.432Z,54.70
2023-02-15T05:36:22.844Z,51.93
2023-02-15T05:37:31.397Z,52.10
2023-02-15T05:38:39.468Z,47.60
2023-02-15T05:39:43.474Z,46.33
2023-02-15T05:40:45.248Z,50.83
2023-02-15T05:41:46.793Z,51.97
2023-02-15T05:42:53.847Z,50.97
2023-02-15T05:43:56.071Z,48.27
2023-02-15T05:44:57.530Z,49.90
2023-02-15T05:45:58.931Z,57.30
2023-02-15T05:47:00.336Z,50.30
2023-02-15T05:48:01.752Z,51.77
2023-02-15T05:49:03.088Z,56.00
2023-02-15T05:50:04.640Z,49.73
2023-02-15T05:51:07.298Z,57.50
2023-02-15T05:52:09.212Z,50.10
2023-02-15T05:53:10.804Z,50.70
2023-02-15T05:54:12.415Z,54.57
2023-02-15T05:55:13.790Z,51.07
2023-02-15T05:56:15.116Z,49.40
2023-02-15T05:57:16.446Z,48.27
2023-02-15T05:58:17.789Z,51.27
2023-02-15T05:59:19.106Z,53.03
2023-02-15T06:00:20.680Z,47.43
2023-02-15T06:01:25.072Z,48.67
2023-02-15T06:02:26.637Z,50.30
2023-02-15T06:03:29.836Z,47.90
2023-02-15T06:04:31.591Z,50.80
2023-02-15T06:05:32.921Z,48.93
2023-02-15T06:06:35.445Z,50.90
2023-02-15T06:07:36.829Z,52.17
2023-02-15T06:08:38.588Z,54.50
2023-02-15T06:09:39.970Z,50.80
2023-02-15T06:10:41.266Z,50.73
2023-02-15T06:11:42.617Z,50.53
2023-02-15T06:12:44.899Z,48.07
2023-02-15T06:13:46.294Z,53.70
2023-02-15T06:14:47.600Z,49.40
2023-02-15T06:15:48.949Z,52.10
2023-02-15T06:16:50.358Z,49.33
2023-02-15T06:17:51.704Z,50.07
2023-02-15T06:18:53.859Z,48.17
2023-02-15T06:19:55.264Z,50.73
2023-02-15T06:20:56.594Z,47.90
2023-02-15T06:21:58.102Z,51.47
2023-02-15T06:22:59.443Z,53.47
2023-02-15T06:24:00.910Z,50.53
2023-02-15T06:25:02.296Z,50.73
2023-02-15T06:26:03.869Z,48.53
2023-02-15T06:27:05.356Z,48.63
2023-02-15T06:28:06.948Z,47.57
2023-02-15T06:29:08.301Z,50.87
2023-02-15T06:30:10.377Z,49.00
2023-02-15T06:31:11.852Z,46.43
2023-02-15T06:32:13.255Z,49.93
2023-02-15T06:33:14.575Z,49.03
2023-02-15T06:34:15.868Z,44.30
2023-02-15T06:35:17.207Z,46.47
2023-02-15T06:36:18.719Z,45.90
2023-02-15T06:37:20.099Z,44.77
2023-02-15T06:38:21.415Z,47.27
2023-02-15T06:39:22.761Z,44.30
2023-02-15T06:40:24.077Z,44.57
2023-02-15T06:41:25.503Z,44.10
2023-02-15T06:42:26.831Z,43.87
2023-02-15T06:43:28.155Z,44.87
2023-02-15T06:44:29.558Z,44.70
2023-02-15T06:45:30.863Z,45.57
2023-02-15T06:46:32.256Z,45.13
2023-02-15T06:47:40.594Z,45.10
2023-02-15T06:48:52.335Z,44.80
2023-02-15T06:49:54.329Z,45.60
2023-02-15T06:50:55.636Z,46.63
2023-02-15T06:51:56.936Z,42.10
2023-02-15T06:52:58.737Z,44.03
2023-02-15T06:54:00.035Z,43.10
2023-02-15T06:55:03.997Z,44.00
2023-02-15T06:56:07.607Z,44.13
2023-02-15T06:57:10.390Z,43.57
2023-02-15T06:58:11.767Z,42.07
2023-02-15T06:59:13.067Z,41.97
2023-02-15T07:00:14.813Z,41.57
2023-02-15T07:01:16.298Z,45.87
2023-02-15T07:02:17.669Z,41.93
2023-02-15T07:03:19.045Z,41.93
2023-02-15T07:04:20.378Z,39.53
2023-02-15T07:05:22.016Z,39.97
2023-02-15T07:06:23.297Z,40.60
2023-02-15T07:07:24.634Z,38.03
2023-02-15T07:08:26.778Z,38.77
2023-02-15T07:09:28.082Z,36.50
2023-02-15T07:10:29.511Z,40.40
2023-02-15T07:11:49.600Z,37.10
2023-02-15T07:12:51.037Z,33.93
2023-02-15T07:13:55.632Z,37.40
2023-02-15T07:14:59.014Z,38.57
2023-02-15T07:16:00.913Z,37.40
2023-02-15T07:17:02.439Z,38.70
2023-02-15T07:18:03.918Z,37.00
2023-02-15T07:19:05.219Z,39.27
2023-02-15T07:20:11.582Z,39.23
2023-02-15T07:21:13.122Z,38.83
2023-02-15T07:22:14.568Z,39.23
2023-02-15T07:23:18.567Z,36.37
2023-02-15T07:24:23.120Z,35.77
2023-02-15T07:25:26.596Z,36.50
2023-02-15T07:26:27.949Z,39.70
2023-02-15T07:27:29.264Z,34.40
2023-02-15T07:28:30.634Z,35.00
2023-02-15T07:29:31.933Z,36.60
2023-02-15T07:30:33.332Z,38.67
2023-02-15T07:31:34.682Z,37.90
2023-02-15T07:32:36.084Z,35.03
2023-02-15T07:33:37.599Z,35.40
2023-02-15T07:34:38.904Z,40.07
2023-02-15T07:35:47.003Z,38.70
2023-02-15T07:36:48.354Z,38.73
2023-02-15T07:37:51.894Z,34.13
2023-02-15T07:38:53.433Z,36.60
2023-02-15T07:39:54.749Z,36.17
2023-02-15T07:40:59.946Z,39.10
2023-02-15T07:42:01.365Z,34.03
2023-02-15T07:43:05.606Z,35.60
2023-02-15T07:44:11.777Z,37.60
2023-02-15T07:45:13.452Z,35.80
2023-02-15T07:46:16.461Z,35.97
2023-02-15T07:47:17.887Z,41.10
2023-02-15T07:48:19.183Z,37.53
2023-02-15T07:49:20.665Z,37.17
2023-02-15T07:50:22.181Z,36.03
2023-02-15T07:51:23.559Z,37.57
2023-02-15T07:52:26.126Z,39.23
2023-02-15T07:53:27.648Z,40.60
2023-02-15T07:54:29.079Z,37.90
2023-02-15T07:55:30.637Z,35.43
2023-02-15T07:56:33.726Z,40.27
2023-02-15T07:57:35.834Z,33.67
2023-02-15T07:58:52.446Z,35.57
2023-02-15T07:59:53.824Z,37.23
2023-02-15T08:00:59.414Z,34.00
2023-02-15T08:02:00.720Z,37.77
2023-02-15T08:03:14.263Z,35.20
2023-02-15T08:04:15.940Z,35.90
2023-02-15T08:05:19.106Z,34.67
2023-02-15T08:06:21.405Z,36.73
2023-02-15T08:07:22.728Z,35.43
2023-02-15T08:08:33.338Z,36.53
2023-02-15T08:09:34.688Z,35.93
2023-02-15T08:10:55.094Z,36.63
2023-02-15T08:11:56.409Z,35.50
2023-02-15T08:12:57.778Z,35.77
2023-02-15T08:14:12.498Z,35.43
2023-02-15T08:15:13.851Z,36.47
2023-02-15T08:16:15.231Z,34.70
2023-02-15T08:17:16.598Z,35.13
2023-02-15T08:18:17.946Z,34.83
2023-02-15T08:19:23.557Z,32.73
2023-02-15T08:20:24.906Z,34.53
2023-02-15T08:21:27.682Z,36.63
2023-02-15T08:22:30.230Z,36.57
2023-02-15T08:23:31.513Z,34.60
2023-02-15T08:24:34.176Z,35.17
2023-02-15T08:25:35.489Z,33.00
2023-02-15T08:26:37.381Z,36.47
2023-02-15T08:27:38.786Z,34.03
2023-02-15T08:28:40.715Z,35.53
2023-02-15T08:29:43.113Z,33.30
2023-02-15T08:30:44.533Z,32.90
2023-02-15T08:31:46.497Z,32.80
2023-02-15T08:32:47.921Z,34.57
2023-02-15T08:33:50.218Z,34.40
2023-02-15T08:34:51.691Z,33.57
2023-02-15T08:35:52.995Z,32.83
2023-02-15T08:36:54.427Z,33.33
2023-02-15T08:37:56.390Z,34.80
2023-02-15T08:39:02.300Z,33.87
2023-02-15T08:40:03.817Z,30.03
2023-02-15T08:41:12.259Z,32.83
2023-02-15T08:42:13.637Z,34.57
2023-02-15T08:43:15.048Z,34.40
2023-02-15T08:44:17.306Z,33.60
2023-02-15T08:45:18.705Z,35.20
2023-02-15T08:46:20.378Z,36.00
2023-02-15T08:47:21.839Z,33.60
2023-02-15T08:48:23.166Z,34.77
2023-02-15T08:49:24.994Z,32.33
2023-02-15T08:50:26.356Z,31.47
2023-02-15T08:51:29.726Z,30.63
2023-02-15T08:52:31.045Z,31.43
2023-02-15T08:53:32.435Z,30.40
2023-02-15T08:54:33.960Z,30.37
2023-02-15T08:55:35.296Z,31.43
2023-02-15T08:56:39.070Z,30.80
2023-02-15T08:57:45.784Z,32.93
2023-02-15T08:58:47.200Z,32.17
2023-02-15T08:59:49.458Z,31.43
2023-02-15T09:00:51.033Z,29.67
2023-02-15T09:01:52.707Z,33.27
2023-02-15T09:02:54.309Z,32.23
2023-02-15T09:03:56.833Z,29.47
2023-02-15T09:04:58.203Z,30.00
2023-02-15T09:06:00.828Z,29.43
2023-02-15T09:07:02.983Z,28.43
2023-02-15T09:08:04.390Z,28.70
2023-02-15T09:09:06.154Z,27.63
2023-02-15T09:10:07.779Z,28.40
2023-02-15T09:11:23.768Z,27.67
2023-02-15T09:12:25.124Z,31.30
2023-02-15T09:13:26.484Z,29.03
2023-02-15T09:14:28.178Z,29.37
2023-02-15T09:15:29.477Z,28.30
2023-02-15T09:16:32.273Z,31.50
2023-02-15T09:17:33.614Z,31.43
2023-02-15T09:18:37.302Z,33.63
2023-02-15T09:19:38.601Z,31.70
2023-02-15T09:20:39.900Z,30.63
2023-02-15T09:21:41.480Z,30.67
2023-02-15T09:22:42.806Z,31.87
2023-02-15T09:23:45.104Z,33.30
2023-02-15T09:24:46.417Z,33.30
2023-02-15T09:25:47.723Z,33.17
2023-02-15T09:26:49.424Z,33.20
2023-02-15T09:27:50.886Z,33.03
2023-02-15T09:28:53.449Z,36.27
2023-02-15T09:29:54.864Z,35.97
2023-02-15T09:30:56.833Z,35.77
2023-02-15T09:31:58.373Z,31.57
2023-02-15T09:32:59.810Z,32.83
2023-02-15T09:34:02.226Z,31.83
2023-02-15T09:35:03.623Z,31.00
2023-02-15T09:36:05.510Z,30.73
2023-02-15T09:37:07.453Z,30.70
2023-02-15T09:38:09.980Z,33.80
2023-02-15T09:39:19.007Z,34.17
2023-02-15T09:40:20.355Z,32.83
2023-02-15T09:41:40.485Z,30.13
2023-02-15T09:43:00.696Z,36.33
2023-02-15T09:44:08.936Z,34.13
2023-02-15T09:45:25.410Z,34.57
2023-02-15T09:46:37.474Z,31.90
2023-02-15T09:47:52.306Z,35.50
2023-02-15T09:48:54.673Z,34.63
2023-02-15T09:49:56.066Z,35.20
2023-02-15T09:51:06.454Z,31.57
2023-02-15T09:52:07.797Z,35.80
2023-02-15T09:53:28.073Z,35.60
2023-02-15T09:54:35.564Z,33.73
2023-02-15T09:55:47.795Z,33.77
2023-02-15T09:56:51.055Z,34.57
2023-02-15T09:57:55.282Z,35.97
2023-02-15T09:59:11.699Z,37.27
2023-02-15T10:00:28.342Z,37.83
2023-02-15T10:01:48.688Z,36.07
2023-02-15T10:02:56.920Z,40.00
2023-02-15T10:04:17.088Z,37.43
2023-02-15T10:05:18.457Z,36.10
2023-02-15T10:06:19.812Z,36.07
2023-02-15T10:07:30.623Z,35.73
2023-02-15T10:08:38.241Z,38.10
2023-02-15T10:09:47.538Z,35.43
2023-02-15T10:10:54.889Z,38.10
2023-02-15T10:12:15.109Z,40.17
2023-02-15T10:13:35.253Z,38.30
2023-02-15T10:14:51.334Z,36.77
2023-02-15T10:16:06.027Z,39.23
2023-02-15T10:17:07.356Z,36.20
2023-02-15T10:18:11.407Z,36.77
2023-02-15T10:19:19.693Z,37.63
2023-02-15T10:20:33.301Z,37.57
2023-02-15T10:21:41.298Z,39.57
2023-02-15T10:23:01.190Z,38.17
2023-02-15T10:24:43.217Z,39.30
2023-02-15T10:25:54.709Z,39.23
2023-02-15T10:27:01.235Z,38.53
2023-02-15T10:28:24.262Z,37.67
2023-02-15T10:29:25.604Z,38.97
2023-02-15T10:30:36.009Z,40.87
2023-02-15T10:31:51.730Z,39.40
2023-02-15T10:33:03.769Z,40.17
2023-02-15T10:34:13.101Z,42.27
2023-02-15T10:35:14.454Z,41.43
2023-02-15T10:36:33.208Z,43.90
2023-02-15T10:37:46.606Z,39.33
2023-02-15T10:39:08.595Z,42.27
2023-02-15T10:40:24.598Z,43.87
2023-02-15T10:41:38.069Z,41.43
2023-02-15T10:42:55.428Z,42.57
2023-02-15T10:44:14.920Z,45.47
2023-02-15T10:45:22.612Z,44.23
2023-02-15T10:46:35.929Z,41.23
2023-02-15T10:47:54.689Z,40.50
2023-02-15T10:49:05.190Z,43.00
2023-02-15T10:50:07.456Z,42.10
2023-02-15T10:51:20.737Z,43.53
2023-02-15T10:52:42.378Z,45.07
2023-02-15T10:53:46.416Z,41.47
2023-02-15T10:55:01.103Z,38.57
2023-02-15T10:56:08.805Z,40.10
2023-02-15T10:57:21.402Z,40.83
2023-02-15T10:58:34.356Z,40.30
2023-02-15T10:59:35.680Z,41.13
2023-02-15T11:00:44.691Z,40.10
2023-02-15T11:01:54.934Z,38.23
2023-02-15T11:03:14.906Z,39.83
2023-02-15T11:04:22.484Z,39.33
2023-02-15T11:05:35.241Z,40.83
2023-02-15T11:06:39.060Z,39.83
2023-02-15T11:07:42.243Z,38.13
2023-02-15T11:08:48.463Z,41.73
2023-02-15T11:09:57.706Z,39.23
2023-02-15T11:11:02.979Z,41.93
2023-02-15T11:12:08.920Z,39.57
2023-02-15T11:13:12.487Z,43.13
2023-02-15T11:14:15.830Z,41.97
2023-02-15T11:15:37.820Z,42.37
2023-02-15T11:16:41.720Z,38.67
2023-02-15T11:17:46.385Z,39.43
2023-02-15T11:18:51.044Z,38.77
2023-02-15T11:19:59.266Z,40.37
2023-02-15T11:21:23.141Z,43.10
2023-02-15T11:22:24.962Z,41.73
2023-02-15T11:23:27.149Z,42.17
2023-02-15T11:24:29.502Z,39.13
2023-02-15T11:25:35.200Z,40.70
2023-02-15T11:27:15.990Z,42.30
2023-02-15T11:28:29.820Z,38.87
2023-02-15T11:29:49.082Z,39.93
2023-02-15T11:30:53.110Z,39.57
2023-02-15T11:32:05.433Z,42.20
2023-02-15T11:33:07.602Z,38.80
2023-02-15T11:34:15.274Z,40.50
2023-02-15T11:35:31.716Z,38.57
2023-02-15T11:36:38.440Z,38.93
2023-02-15T11:37:43.557Z,41.43
2023-02-15T11:38:48.721Z,40.00
2023-02-15T11:39:55.647Z,39.17
2023-02-15T11:41:04.378Z,39.50
2023-02-15T11:42:10.761Z,41.13
2023-02-15T11:43:18.725Z,41.47
2023-02-15T11:44:25.252Z,41.97
2023-02-15T11:45:31.086Z,37.90
2023-02-15T11:46:32.623Z,38.80
2023-02-15T11:47:34.021Z,41.97
2023-02-15T11:48:35.386Z,40.07
2023-02-15T11:49:36.827Z,39.53
2023-02-15T11:50:40.448Z,37.33
2023-02-15T11:51:46.998Z,38.60
2023-02-15T11:52:56.103Z,37.77
2023-02-15T11:54:00.484Z,38.70
2023-02-15T11:55:02.023Z,39.20
2023-02-15T11:56:05.163Z,40.67
2023-02-15T11:57:12.666Z,38.63
2023-02-15T11:58:14.239Z,39.03
2023-02-15T11:59:20.253Z,37.63
2023-02-15T12:00:37.269Z,41.20
2023-02-15T12:01:43.754Z,42.30
2023-02-15T12:02:47.639Z,38.93
2023-02-15T12:03:56.289Z,40.07
2023-02-15T12:05:02.705Z,38.10
2023-02-15T12:06:05.192Z,40.23
2023-02-15T12:07:11.647Z,40.17
2023-02-15T12:08:16.036Z,39.07
2023-02-15T12:09:32.823Z,36.67
2023-02-15T12:10:40.918Z,39.53
2023-02-15T12:11:42.475Z,37.53
2023-02-15T12:12:44.076Z,36.07
2023-02-15T12:13:56.237Z,38.37
2023-02-15T12:15:07.399Z,36.90
2023-02-15T12:16:16.749Z,38.00
2023-02-15T12:17:22.143Z,38.47
2023-02-15T12:18:37.689Z,39.37
2023-02-15T12:19:46.216Z,38.87
2023-02-15T12:20:47.604Z,36.20
2023-02-15T12:21:52.758Z,35.97
2023-02-15T12:22:55.480Z,35.53
2023-02-15T12:24:32.532Z,36.93
2023-02-15T12:25:38.538Z,35.63
2023-02-15T12:26:42.701Z,36.93
2023-02-15T12:27:44.234Z,35.50
2023-02-15T12:28:52.947Z,35.93
2023-02-15T12:29:59.421Z,36.63
2023-02-15T12:31:04.845Z,36.07
2023-02-15T12:32:07.650Z,39.80
2023-02-15T12:33:16.526Z,35.83
2023-02-15T12:34:20.964Z,34.47
2023-02-15T12:35:28.511Z,34.77
2023-02-15T12:36:49.547Z,36.97
2023-02-15T12:38:04.195Z,36.63
2023-02-15T12:39:16.028Z,33.50
2023-02-15T12:40:31.400Z,38.87
2023-02-15T12:41:33.125Z,35.17
2023-02-15T12:42:47.645Z,36.70
2023-02-15T12:44:03.287Z,37.23
2023-02-15T12:45:20.199Z,38.40
2023-02-15T12:46:26.427Z,36.37
2023-02-15T12:47:32.392Z,36.40
2023-02-15T12:48:42.479Z,37.40
2023-02-15T12:49:48.091Z,34.77
2023-02-15T12:50:57.759Z,36.73
2023-02-15T12:52:08.887Z,36.57
2023-02-15T12:53:16.117Z,36.90
2023-02-15T12:54:23.322Z,37.37
2023-02-15T12:55:26.530Z,39.80
2023-02-15T12:56:28.682Z,36.90
2023-02-15T12:57:34.094Z,37.60
2023-02-15T12:58:36.665Z,39.67
2023-02-15T12:59:38.889Z,36.97
2023-02-15T13:00:43.016Z,38.90
2023-02-15T13:01:46.010Z,37.53
2023-02-15T13:02:49.234Z,36.67
2023-02-15T13:04:02.098Z,38.07
2023-02-15T13:05:19.269Z,36.07
2023-02-15T13:06:23.145Z,37.40
2023-02-15T13:07:25.877Z,36.10
2023-02-15T13:08:32.778Z,36.50
2023-02-15T13:09:41.593Z,38.33
2023-02-15T13:10:53.145Z,36.93
2023-02-15T13:11:55.052Z,37.77
2023-02-15T13:12:59.600Z,35.47
2023-02-15T13:14:08.646Z,35.23
2023-02-15T13:15:23.830Z,37.03
2023-02-15T13:16:33.262Z,36.27
2023-02-15T13:17:37.786Z,36.87
2023-02-15T13:18:46.310Z,39.07
2023-02-15T13:19:52.634Z,36.67
2023-02-15T13:20:53.992Z,39.50
2023-02-15T13:21:55.700Z,36.50
2023-02-15T13:22:59.567Z,41.43
2023-02-15T13:24:02.254Z,38.27
2023-02-15T13:25:10.579Z,38.17
2023-02-15T13:26:15.370Z,36.60
2023-02-15T13:27:19.019Z,39.37
2023-02-15T13:28:27.022Z,40.17
2023-02-15T13:29:30.854Z,38.87
2023-02-15T13:30:53.302Z,40.23
2023-02-15T13:31:56.831Z,38.60
2023-02-15T13:33:18.476Z,39.53
2023-02-15T13:34:37.041Z,40.57
2023-02-15T13:35:45.543Z,36.93
2023-02-15T13:36:52.117Z,36.63
2023-02-15T13:37:56.504Z,35.53
2023-02-15T13:39:02.124Z,38.07
2023-02-15T13:40:19.231Z,38.00
2023-02-15T13:41:23.614Z,37.33
2023-02-15T13:42:32.028Z,37.43
2023-02-15T13:43:41.776Z,39.30
2023-02-15T13:44:57.800Z,36.33
2023-02-15T13:46:19.629Z,37.43
2023-02-15T13:47:20.939Z,39.07
2023-02-15T13:48:45.646Z,37.60
2023-02-15T13:49:58.986Z,35.87
2023-02-15T13:51:06.385Z,37.50
2023-02-15T13:52:12.208Z,37.30
2023-02-15T13:53:26.122Z,39.50
2023-02-15T13:54:44.123Z,39.90
2023-02-15T13:55:52.497Z,37.10
2023-02-15T13:56:56.675Z,38.77
2023-02-15T13:58:21.110Z,39.43
2023-02-15T13:59:28.947Z,36.40
2023-02-15T14:00:53.235Z,40.67
2023-02-15T14:01:59.733Z,35.93
2023-02-15T14:03:19.871Z,34.90
2023-02-15T14:04:40.054Z,39.13
2023-02-15T14:05:56.688Z,36.97
2023-02-15T14:07:16.780Z,36.30
2023-02-15T14:08:30.566Z,36.23
2023-02-15T14:09:39.314Z,39.90